sensor_id;sensor_type;location;lat;lon;timestamp;P1;durP1;ratioP1;P2;durP2;ratioP2
30593;SDS011;33199;47.590;8.300;2023-04-03T00:01:15;0.52;;;0.52;;
30593;SDS011;33199;47.590;8.300;2023-04-03T00:03:41;0.40;;;0.40;;
30593;SDS011;33199;47.590;8.300;2023-04-03T00:06:07;0.50;;;0.50;;
30593;SDS011;33199;47.590;8.300;2023-04-03T00:08:35;0.43;;;0.43;;
30593;SDS011;33199;47.590;8.300;2023-04-03T00:11:01;1.10;;;0.57;;
30593;SDS011;33199;47.590;8.300;2023-04-03T00:13:27;0.47;;;0.47;;
30593;SDS011;33199;47.590;8.300;2023-04-03T00:15:53;0.40;;;0.40;;
30593;SDS011;33199;47.590;8.300;2023-04-03T00:18:18;0.40;;;0.40;;
30593;SDS011;33199;47.590;8.300;2023-04-03T00:20:46;1.60;;;0.60;;
30593;SDS011;33199;47.590;8.300;2023-04-03T00:23:12;0.40;;;0.40;;
30593;SDS011;33199;47.590;8.300;2023-04-03T00:25:38;0.57;;;0.57;;
30593;SDS011;33199;47.590;8.300;2023-04-03T00:28:04;0.60;;;0.60;;
30593;SDS011;33199;47.590;8.300;2023-04-03T00:30:30;0.50;;;0.50;;
30593;SDS011;33199;47.590;8.300;2023-04-03T00:32:56;0.50;;;0.50;;
30593;SDS011;33199;47.590;8.300;2023-04-03T00:35:22;0.60;;;0.60;;
30593;SDS011;33199;47.590;8.300;2023-04-03T00:37:52;0.60;;;0.60;;
30593;SDS011;33199;47.590;8.300;2023-04-03T00:40:18;0.70;;;0.70;;
30593;SDS011;33199;47.590;8.300;2023-04-03T00:42:46;0.50;;;0.50;;
30593;SDS011;33199;47.590;8.300;2023-04-03T00:48:03;0.50;;;0.50;;
30593;SDS011;33199;47.590;8.300;2023-04-03T00:50:31;0.50;;;0.50;;
30593;SDS011;33199;47.590;8.300;2023-04-03T00:53:00;0.65;;;0.65;;
30593;SDS011;33199;47.590;8.300;2023-04-03T00:55:26;0.60;;;0.60;;
30593;SDS011;33199;47.590;8.300;2023-04-03T00:57:53;0.60;;;0.60;;
30593;SDS011;33199;47.590;8.300;2023-04-03T01:00:21;0.68;;;0.68;;
30593;SDS011;33199;47.590;8.300;2023-04-03T01:02:48;0.60;;;0.60;;
30593;SDS011;33199;47.590;8.300;2023-04-03T01:05:15;0.85;;;0.65;;
30593;SDS011;33199;47.590;8.300;2023-04-03T01:07:42;0.50;;;0.50;;
30593;SDS011;33199;47.590;8.300;2023-04-03T01:10:09;0.50;;;0.50;;
30593;SDS011;33199;47.590;8.300;2023-04-03T01:12:39;1.17;;;0.90;;
30593;SDS011;33199;47.590;8.300;2023-04-03T01:15:07;0.50;;;0.50;;
30593;SDS011;33199;47.590;8.300;2023-04-03T01:17:44;0.70;;;0.70;;
30593;SDS011;33199;47.590;8.300;2023-04-03T01:25:32;0.60;;;0.60;;
30593;SDS011;33199;47.590;8.300;2023-04-03T01:27:59;0.50;;;0.50;;
30593;SDS011;33199;47.590;8.300;2023-04-03T01:30:26;0.57;;;0.57;;
30593;SDS011;33199;47.590;8.300;2023-04-03T01:32:58;0.68;;;0.68;;
30593;SDS011;33199;47.590;8.300;2023-04-03T01:35:23;0.50;;;0.50;;
30593;SDS011;33199;47.590;8.300;2023-04-03T01:37:49;0.60;;;0.60;;
30593;SDS011;33199;47.590;8.300;2023-04-03T01:40:14;0.50;;;0.50;;
30593;SDS011;33199;47.590;8.300;2023-04-03T01:42:40;0.50;;;0.50;;
30593;SDS011;33199;47.590;8.300;2023-04-03T01:45:06;0.50;;;0.50;;
30593;SDS011;33199;47.590;8.300;2023-04-03T01:47:32;1.30;;;0.50;;
30593;SDS011;33199;47.590;8.300;2023-04-03T01:49:57;0.50;;;0.50;;
30593;SDS011;33199;47.590;8.300;2023-04-03T01:52:23;0.43;;;0.40;;
30593;SDS011;33199;47.590;8.300;2023-04-03T01:54:49;0.55;;;0.55;;
30593;SDS011;33199;47.590;8.300;2023-04-03T01:57:15;0.50;;;0.50;;
30593;SDS011;33199;47.590;8.300;2023-04-03T01:59:41;0.60;;;0.60;;
30593;SDS011;33199;47.590;8.300;2023-04-03T02:02:07;0.43;;;0.43;;
30593;SDS011;33199;47.590;8.300;2023-04-03T02:04:33;0.60;;;0.60;;
30593;SDS011;33199;47.590;8.300;2023-04-03T02:06:59;0.45;;;0.45;;
30593;SDS011;33199;47.590;8.300;2023-04-03T02:09:25;0.80;;;0.60;;
30593;SDS011;33199;47.590;8.300;2023-04-03T02:11:51;0.60;;;0.60;;
30593;SDS011;33199;47.590;8.300;2023-04-03T02:14:17;0.60;;;0.60;;
30593;SDS011;33199;47.590;8.300;2023-04-03T02:16:43;0.50;;;0.50;;
30593;SDS011;33199;47.590;8.300;2023-04-03T02:19:09;0.68;;;0.55;;
30593;SDS011;33199;47.590;8.300;2023-04-03T02:21:35;0.40;;;0.40;;
30593;SDS011;33199;47.590;8.300;2023-04-03T02:24:00;0.60;;;0.60;;
30593;SDS011;33199;47.590;8.300;2023-04-03T02:26:27;0.60;;;0.60;;
30593;SDS011;33199;47.590;8.300;2023-04-03T02:28:52;0.40;;;0.40;;
30593;SDS011;33199;47.590;8.300;2023-04-03T02:31:18;0.57;;;0.57;;
30593;SDS011;33199;47.590;8.300;2023-04-03T02:33:44;0.73;;;0.40;;
30593;SDS011;33199;47.590;8.300;2023-04-03T02:36:09;0.50;;;0.50;;
30593;SDS011;33199;47.590;8.300;2023-04-03T02:38:36;1.00;;;0.50;;
30593;SDS011;33199;47.590;8.300;2023-04-03T02:41:03;0.63;;;0.63;;
30593;SDS011;33199;47.590;8.300;2023-04-03T02:43:30;0.70;;;0.70;;
30593;SDS011;33199;47.590;8.300;2023-04-03T02:45:56;0.60;;;0.60;;
30593;SDS011;33199;47.590;8.300;2023-04-03T02:48:22;0.50;;;0.50;;
30593;SDS011;33199;47.590;8.300;2023-04-03T02:50:48;0.40;;;0.40;;
30593;SDS011;33199;47.590;8.300;2023-04-03T02:53:14;0.40;;;0.40;;
30593;SDS011;33199;47.590;8.300;2023-04-03T02:55:40;0.50;;;0.50;;
30593;SDS011;33199;47.590;8.300;2023-04-03T02:58:06;0.40;;;0.40;;
30593;SDS011;33199;47.590;8.300;2023-04-03T03:00:32;0.50;;;0.50;;
30593;SDS011;33199;47.590;8.300;2023-04-03T03:02:58;1.00;;;0.50;;
30593;SDS011;33199;47.590;8.300;2023-04-03T03:05:25;0.50;;;0.50;;
30593;SDS011;33199;47.590;8.300;2023-04-03T03:07:51;0.50;;;0.50;;
30593;SDS011;33199;47.590;8.300;2023-04-03T03:10:17;0.95;;;0.45;;
30593;SDS011;33199;47.590;8.300;2023-04-03T03:12:42;0.68;;;0.68;;
30593;SDS011;33199;47.590;8.300;2023-04-03T03:15:08;0.50;;;0.50;;
30593;SDS011;33199;47.590;8.300;2023-04-03T03:17:34;0.63;;;0.50;;
30593;SDS011;33199;47.590;8.300;2023-04-03T03:20:01;0.70;;;0.70;;
30593;SDS011;33199;47.590;8.300;2023-04-03T03:22:27;0.50;;;0.50;;
30593;SDS011;33199;47.590;8.300;2023-04-03T03:24:53;0.50;;;0.50;;
30593;SDS011;33199;47.590;8.300;2023-04-03T03:27:19;0.60;;;0.60;;
30593;SDS011;33199;47.590;8.300;2023-04-03T03:29:45;0.40;;;0.40;;
30593;SDS011;33199;47.590;8.300;2023-04-03T03:32:11;0.60;;;0.60;;
30593;SDS011;33199;47.590;8.300;2023-04-03T03:34:37;2.22;;;0.60;;
30593;SDS011;33199;47.590;8.300;2023-04-03T03:37:03;0.60;;;0.60;;
30593;SDS011;33199;47.590;8.300;2023-04-03T03:39:28;0.45;;;0.45;;
30593;SDS011;33199;47.590;8.300;2023-04-03T03:41:54;0.63;;;0.63;;
30593;SDS011;33199;47.590;8.300;2023-04-03T03:44:20;0.55;;;0.55;;
30593;SDS011;33199;47.590;8.300;2023-04-03T03:46:46;0.60;;;0.60;;
30593;SDS011;33199;47.590;8.300;2023-04-03T03:49:11;0.40;;;0.40;;
30593;SDS011;33199;47.590;8.300;2023-04-03T03:51:38;0.52;;;0.52;;
30593;SDS011;33199;47.590;8.300;2023-04-03T03:54:04;0.50;;;0.50;;
30593;SDS011;33199;47.590;8.300;2023-04-03T03:56:30;0.52;;;0.52;;
30593;SDS011;33199;47.590;8.300;2023-04-03T03:58:56;0.60;;;0.60;;
30593;SDS011;33199;47.590;8.300;2023-04-03T04:01:22;0.63;;;0.63;;
30593;SDS011;33199;47.590;8.300;2023-04-03T04:03:49;0.60;;;0.60;;
30593;SDS011;33199;47.590;8.300;2023-04-03T04:06:15;0.63;;;0.63;;
30593;SDS011;33199;47.590;8.300;2023-04-03T04:08:41;0.50;;;0.50;;
30593;SDS011;33199;47.590;8.300;2023-04-03T04:11:07;0.70;;;0.70;;
30593;SDS011;33199;47.590;8.300;2023-04-03T04:13:33;0.60;;;0.60;;
30593;SDS011;33199;47.590;8.300;2023-04-03T04:15:58;0.63;;;0.63;;
30593;SDS011;33199;47.590;8.300;2023-04-03T04:18:24;0.50;;;0.50;;
30593;SDS011;33199;47.590;8.300;2023-04-03T04:20:50;0.75;;;0.75;;
30593;SDS011;33199;47.590;8.300;2023-04-03T04:23:16;0.50;;;0.50;;
30593;SDS011;33199;47.590;8.300;2023-04-03T04:25:46;0.60;;;0.60;;
30593;SDS011;33199;47.590;8.300;2023-04-03T04:28:13;0.63;;;0.63;;
30593;SDS011;33199;47.590;8.300;2023-04-03T04:30:39;0.70;;;0.70;;
30593;SDS011;33199;47.590;8.300;2023-04-03T04:33:05;0.57;;;0.57;;
30593;SDS011;33199;47.590;8.300;2023-04-03T04:35:31;1.65;;;0.88;;
30593;SDS011;33199;47.590;8.300;2023-04-03T04:37:57;0.68;;;0.68;;
30593;SDS011;33199;47.590;8.300;2023-04-03T04:40:23;0.50;;;0.50;;
30593;SDS011;33199;47.590;8.300;2023-04-03T04:42:49;0.70;;;0.70;;
30593;SDS011;33199;47.590;8.300;2023-04-03T04:45:14;0.60;;;0.60;;
30593;SDS011;33199;47.590;8.300;2023-04-03T04:47:40;0.70;;;0.70;;
30593;SDS011;33199;47.590;8.300;2023-04-03T04:50:07;0.75;;;0.60;;
30593;SDS011;33199;47.590;8.300;2023-04-03T04:52:33;0.70;;;0.70;;
30593;SDS011;33199;47.590;8.300;2023-04-03T04:54:58;0.70;;;0.70;;
30593;SDS011;33199;47.590;8.300;2023-04-03T04:57:24;0.60;;;0.60;;
30593;SDS011;33199;47.590;8.300;2023-04-03T04:59:50;0.75;;;0.70;;
30593;SDS011;33199;47.590;8.300;2023-04-03T05:02:16;0.60;;;0.60;;
30593;SDS011;33199;47.590;8.300;2023-04-03T05:04:41;0.70;;;0.70;;
30593;SDS011;33199;47.590;8.300;2023-04-03T05:07:07;1.30;;;0.73;;
30593;SDS011;33199;47.590;8.300;2023-04-03T05:09:33;0.50;;;0.50;;
30593;SDS011;33199;47.590;8.300;2023-04-03T05:11:58;0.68;;;0.68;;
30593;SDS011;33199;47.590;8.300;2023-04-03T05:14:24;0.70;;;0.70;;
30593;SDS011;33199;47.590;8.300;2023-04-03T05:16:50;0.73;;;0.73;;
30593;SDS011;33199;47.590;8.300;2023-04-03T05:21:45;0.95;;;0.65;;
30593;SDS011;33199;47.590;8.300;2023-04-03T05:24:10;0.90;;;0.80;;
30593;SDS011;33199;47.590;8.300;2023-04-03T05:26:36;0.65;;;0.65;;
30593;SDS011;33199;47.590;8.300;2023-04-03T05:29:01;0.85;;;0.85;;
30593;SDS011;33199;47.590;8.300;2023-04-03T05:31:28;0.80;;;0.80;;
30593;SDS011;33199;47.590;8.300;2023-04-03T05:33:55;0.70;;;0.70;;
30593;SDS011;33199;47.590;8.300;2023-04-03T05:36:21;0.85;;;0.85;;
30593;SDS011;33199;47.590;8.300;2023-04-03T05:38:47;1.00;;;0.98;;
30593;SDS011;33199;47.590;8.300;2023-04-03T05:41:13;1.05;;;0.88;;
30593;SDS011;33199;47.590;8.300;2023-04-03T05:43:39;0.80;;;0.80;;
30593;SDS011;33199;47.590;8.300;2023-04-03T05:46:11;1.30;;;1.10;;
30593;SDS011;33199;47.590;8.300;2023-04-03T05:48:38;0.93;;;0.93;;
30593;SDS011;33199;47.590;8.300;2023-04-03T05:51:04;0.95;;;0.95;;
30593;SDS011;33199;47.590;8.300;2023-04-03T05:53:32;0.70;;;0.70;;
30593;SDS011;33199;47.590;8.300;2023-04-03T05:56:00;0.77;;;0.77;;
30593;SDS011;33199;47.590;8.300;2023-04-03T05:58:26;1.58;;;0.90;;
30593;SDS011;33199;47.590;8.300;2023-04-03T06:00:52;1.00;;;1.00;;
30593;SDS011;33199;47.590;8.300;2023-04-03T06:03:17;0.80;;;0.80;;
30593;SDS011;33199;47.590;8.300;2023-04-03T06:05:45;1.00;;;1.00;;
30593;SDS011;33199;47.590;8.300;2023-04-03T06:08:11;0.73;;;0.73;;
30593;SDS011;33199;47.590;8.300;2023-04-03T06:10:37;1.17;;;1.17;;
30593;SDS011;33199;47.590;8.300;2023-04-03T06:13:03;0.90;;;0.90;;
30593;SDS011;33199;47.590;8.300;2023-04-03T06:15:29;1.05;;;1.05;;
30593;SDS011;33199;47.590;8.300;2023-04-03T06:17:54;0.70;;;0.70;;
30593;SDS011;33199;47.590;8.300;2023-04-03T06:20:21;0.82;;;0.82;;
30593;SDS011;33199;47.590;8.300;2023-04-03T06:22:47;0.95;;;0.95;;
30593;SDS011;33199;47.590;8.300;2023-04-03T06:25:12;1.00;;;1.00;;
30593;SDS011;33199;47.590;8.300;2023-04-03T06:27:39;1.10;;;1.00;;
30593;SDS011;33199;47.590;8.300;2023-04-03T06:30:05;2.15;;;2.00;;
30593;SDS011;33199;47.590;8.300;2023-04-03T06:32:32;2.85;;;2.30;;
30593;SDS011;33199;47.590;8.300;2023-04-03T06:34:57;2.15;;;2.05;;
30593;SDS011;33199;47.590;8.300;2023-04-03T06:37:24;3.97;;;2.15;;
30593;SDS011;33199;47.590;8.300;2023-04-03T06:39:54;2.45;;;2.25;;
30593;SDS011;33199;47.590;8.300;2023-04-03T06:42:20;2.92;;;2.60;;
30593;SDS011;33199;47.590;8.300;2023-04-03T06:44:46;2.28;;;2.15;;
30593;SDS011;33199;47.590;8.300;2023-04-03T06:47:13;2.35;;;2.22;;
30593;SDS011;33199;47.590;8.300;2023-04-03T06:49:40;2.13;;;2.00;;
30593;SDS011;33199;47.590;8.300;2023-04-03T06:52:08;2.28;;;2.08;;
30593;SDS011;33199;47.590;8.300;2023-04-03T06:54:34;2.35;;;2.20;;
30593;SDS011;33199;47.590;8.300;2023-04-03T06:57:00;2.70;;;2.28;;
30593;SDS011;33199;47.590;8.300;2023-04-03T06:59:26;2.28;;;2.03;;
30593;SDS011;33199;47.590;8.300;2023-04-03T07:01:52;2.50;;;2.10;;
30593;SDS011;33199;47.590;8.300;2023-04-03T07:04:18;2.17;;;1.98;;
30593;SDS011;33199;47.590;8.300;2023-04-03T07:06:45;2.13;;;2.03;;
30593;SDS011;33199;47.590;8.300;2023-04-03T07:09:12;1.83;;;1.73;;
30593;SDS011;33199;47.590;8.300;2023-04-03T07:11:39;2.10;;;1.95;;
30593;SDS011;33199;47.590;8.300;2023-04-03T07:14:05;1.88;;;1.77;;
30593;SDS011;33199;47.590;8.300;2023-04-03T07:16:32;2.10;;;1.77;;
30593;SDS011;33199;47.590;8.300;2023-04-03T07:18:59;1.90;;;1.80;;
30593;SDS011;33199;47.590;8.300;2023-04-03T07:21:25;1.75;;;1.65;;
30593;SDS011;33199;47.590;8.300;2023-04-03T07:23:51;1.80;;;1.70;;
30593;SDS011;33199;47.590;8.300;2023-04-03T07:26:17;2.30;;;2.00;;
30593;SDS011;33199;47.590;8.300;2023-04-03T07:28:42;1.80;;;1.70;;
30593;SDS011;33199;47.590;8.300;2023-04-03T07:31:12;1.63;;;1.52;;
30593;SDS011;33199;47.590;8.300;2023-04-03T07:33:38;2.05;;;1.83;;
30593;SDS011;33199;47.590;8.300;2023-04-03T07:36:07;1.75;;;1.65;;
30593;SDS011;33199;47.590;8.300;2023-04-03T07:38:34;1.65;;;1.55;;
30593;SDS011;33199;47.590;8.300;2023-04-03T07:41:00;2.13;;;2.03;;
30593;SDS011;33199;47.590;8.300;2023-04-03T07:43:26;1.98;;;1.88;;
30593;SDS011;33199;47.590;8.300;2023-04-03T07:45:53;1.83;;;1.70;;
30593;SDS011;33199;47.590;8.300;2023-04-03T07:48:23;1.80;;;1.70;;
30593;SDS011;33199;47.590;8.300;2023-04-03T07:50:50;3.10;;;1.70;;
30593;SDS011;33199;47.590;8.300;2023-04-03T07:53:16;1.73;;;1.63;;
30593;SDS011;33199;47.590;8.300;2023-04-03T07:55:42;1.70;;;1.60;;
30593;SDS011;33199;47.590;8.300;2023-04-03T07:58:13;1.83;;;1.67;;
30593;SDS011;33199;47.590;8.300;2023-04-03T08:00:40;2.10;;;1.90;;
30593;SDS011;33199;47.590;8.300;2023-04-03T08:03:06;1.80;;;1.70;;
30593;SDS011;33199;47.590;8.300;2023-04-03T08:05:38;1.83;;;1.67;;
30593;SDS011;33199;47.590;8.300;2023-04-03T08:08:05;2.00;;;1.90;;
30593;SDS011;33199;47.590;8.300;2023-04-03T08:10:31;1.60;;;1.50;;
30593;SDS011;33199;47.590;8.300;2023-04-03T08:12:58;2.50;;;2.30;;
30593;SDS011;33199;47.590;8.300;2023-04-03T08:15:24;1.65;;;1.55;;
30593;SDS011;33199;47.590;8.300;2023-04-03T08:17:49;4.13;;;2.00;;
30593;SDS011;33199;47.590;8.300;2023-04-03T08:20:15;1.52;;;1.50;;
30593;SDS011;33199;47.590;8.300;2023-04-03T08:22:41;1.83;;;1.73;;
30593;SDS011;33199;47.590;8.300;2023-04-03T08:25:07;1.85;;;1.75;;
30593;SDS011;33199;47.590;8.300;2023-04-03T08:27:33;1.70;;;1.60;;
30593;SDS011;33199;47.590;8.300;2023-04-03T08:29:58;2.08;;;1.98;;
30593;SDS011;33199;47.590;8.300;2023-04-03T08:32:24;1.75;;;1.65;;
30593;SDS011;33199;47.590;8.300;2023-04-03T08:34:50;1.90;;;1.80;;
30593;SDS011;33199;47.590;8.300;2023-04-03T08:37:16;1.80;;;1.70;;
30593;SDS011;33199;47.590;8.300;2023-04-03T08:39:42;1.50;;;1.50;;
30593;SDS011;33199;47.590;8.300;2023-04-03T08:42:51;1.52;;;1.42;;
30593;SDS011;33199;47.590;8.300;2023-04-03T08:45:16;1.80;;;1.70;;
30593;SDS011;33199;47.590;8.300;2023-04-03T08:48:05;1.70;;;1.60;;
30593;SDS011;33199;47.590;8.300;2023-04-03T08:51:08;1.83;;;1.73;;
30593;SDS011;33199;47.590;8.300;2023-04-03T08:53:27;1.70;;;1.60;;
30593;SDS011;33199;47.590;8.300;2023-04-03T08:55:57;2.80;;;1.60;;
30593;SDS011;33199;47.590;8.300;2023-04-03T08:58:26;1.70;;;1.60;;
30593;SDS011;33199;47.590;8.300;2023-04-03T09:00:59;2.13;;;2.00;;
30593;SDS011;33199;47.590;8.300;2023-04-03T09:03:35;2.05;;;1.77;;
30593;SDS011;33199;47.590;8.300;2023-04-03T09:17:00;1.38;;;1.30;;
30593;SDS011;33199;47.590;8.300;2023-04-03T09:19:39;1.58;;;1.48;;
30593;SDS011;33199;47.590;8.300;2023-04-03T09:25:31;2.00;;;1.50;;
30593;SDS011;33199;47.590;8.300;2023-04-03T09:27:42;2.75;;;1.80;;
30593;SDS011;33199;47.590;8.300;2023-04-03T09:30:15;1.58;;;1.48;;
30593;SDS011;33199;47.590;8.300;2023-04-03T09:32:44;1.65;;;1.55;;
30593;SDS011;33199;47.590;8.300;2023-04-03T09:37:50;2.85;;;1.75;;
30593;SDS011;33199;47.590;8.300;2023-04-03T09:42:58;1.10;;;1.10;;
30593;SDS011;33199;47.590;8.300;2023-04-03T09:45:28;2.30;;;1.52;;
30593;SDS011;33199;47.590;8.300;2023-04-03T09:53:35;2.88;;;1.60;;
30593;SDS011;33199;47.590;8.300;2023-04-03T09:56:19;2.15;;;1.95;;
30593;SDS011;33199;47.590;8.300;2023-04-03T09:58:51;1.60;;;1.50;;
30593;SDS011;33199;47.590;8.300;2023-04-03T10:01:30;2.90;;;1.30;;
30593;SDS011;33199;47.590;8.300;2023-04-03T10:04:03;1.02;;;1.02;;
30593;SDS011;33199;47.590;8.300;2023-04-03T10:06:29;1.17;;;1.17;;
30593;SDS011;33199;47.590;8.300;2023-04-03T10:08:59;3.47;;;1.63;;
30593;SDS011;33199;47.590;8.300;2023-04-03T10:11:29;1.40;;;1.10;;
30593;SDS011;33199;47.590;8.300;2023-04-03T10:13:56;1.10;;;1.10;;
30593;SDS011;33199;47.590;8.300;2023-04-03T10:16:29;1.35;;;1.08;;
30593;SDS011;33199;47.590;8.300;2023-04-03T10:21:45;1.00;;;1.00;;
30593;SDS011;33199;47.590;8.300;2023-04-03T10:24:47;1.50;;;1.40;;
30593;SDS011;33199;47.590;8.300;2023-04-03T10:43:44;1.73;;;0.98;;
30593;SDS011;33199;47.590;8.300;2023-04-03T10:46:23;1.13;;;1.02;;
30593;SDS011;33199;47.590;8.300;2023-04-03T10:57:40;0.82;;;0.82;;
30593;SDS011;33199;47.590;8.300;2023-04-03T11:00:07;0.88;;;0.88;;
30593;SDS011;33199;47.590;8.300;2023-04-03T11:02:57;0.90;;;0.90;;
30593;SDS011;33199;47.590;8.300;2023-04-03T11:05:47;1.05;;;1.00;;
30593;SDS011;33199;47.590;8.300;2023-04-03T11:11:05;1.00;;;1.00;;
30593;SDS011;33199;47.590;8.300;2023-04-03T11:13:39;0.80;;;0.80;;
30593;SDS011;33199;47.590;8.300;2023-04-03T11:16:26;1.42;;;1.30;;
30593;SDS011;33199;47.590;8.300;2023-04-03T11:19:01;0.80;;;0.80;;
30593;SDS011;33199;47.590;8.300;2023-04-03T11:24:36;0.93;;;0.93;;
30593;SDS011;33199;47.590;8.300;2023-04-03T11:27:05;1.15;;;1.15;;
30593;SDS011;33199;47.590;8.300;2023-04-03T11:29:40;0.93;;;0.93;;
30593;SDS011;33199;47.590;8.300;2023-04-03T11:34:54;0.93;;;0.88;;
30593;SDS011;33199;47.590;8.300;2023-04-03T11:42:56;1.10;;;1.10;;
30593;SDS011;33199;47.590;8.300;2023-04-03T11:45:37;1.05;;;0.98;;
30593;SDS011;33199;47.590;8.300;2023-04-03T11:50:53;0.90;;;0.90;;
30593;SDS011;33199;47.590;8.300;2023-04-03T11:58:26;1.92;;;0.95;;
30593;SDS011;33199;47.590;8.300;2023-04-03T12:00:58;1.25;;;0.90;;
30593;SDS011;33199;47.590;8.300;2023-04-03T12:16:22;1.05;;;1.02;;
30593;SDS011;33199;47.590;8.300;2023-04-03T12:21:18;0.70;;;0.70;;
30593;SDS011;33199;47.590;8.300;2023-04-03T12:26:51;0.98;;;0.90;;
30593;SDS011;33199;47.590;8.300;2023-04-03T12:35:07;1.20;;;1.10;;
30593;SDS011;33199;47.590;8.300;2023-04-03T12:46:04;2.53;;;0.80;;
30593;SDS011;33199;47.590;8.300;2023-04-03T12:51:20;0.82;;;0.82;;
30593;SDS011;33199;47.590;8.300;2023-04-03T12:53:57;0.82;;;0.82;;
30593;SDS011;33199;47.590;8.300;2023-04-03T12:56:28;0.70;;;0.70;;
30593;SDS011;33199;47.590;8.300;2023-04-03T12:58:56;1.02;;;1.02;;
30593;SDS011;33199;47.590;8.300;2023-04-03T13:01:59;1.05;;;1.05;;
30593;SDS011;33199;47.590;8.300;2023-04-03T13:04:26;0.98;;;0.98;;
30593;SDS011;33199;47.590;8.300;2023-04-03T13:06:53;1.05;;;1.05;;
30593;SDS011;33199;47.590;8.300;2023-04-03T13:09:27;1.20;;;1.10;;
30593;SDS011;33199;47.590;8.300;2023-04-03T13:11:58;1.25;;;1.20;;
30593;SDS011;33199;47.590;8.300;2023-04-03T13:14:28;3.08;;;1.10;;
30593;SDS011;33199;47.590;8.300;2023-04-03T13:17:14;1.10;;;1.10;;
30593;SDS011;33199;47.590;8.300;2023-04-03T13:19:41;1.10;;;1.10;;
30593;SDS011;33199;47.590;8.300;2023-04-03T13:22:10;1.08;;;1.08;;
30593;SDS011;33199;47.590;8.300;2023-04-03T13:24:53;0.90;;;0.90;;
30593;SDS011;33199;47.590;8.300;2023-04-03T13:29:56;1.00;;;1.00;;
30593;SDS011;33199;47.590;8.300;2023-04-03T13:32:25;1.00;;;1.00;;
30593;SDS011;33199;47.590;8.300;2023-04-03T13:34:53;1.27;;;1.17;;
30593;SDS011;33199;47.590;8.300;2023-04-03T13:37:24;1.13;;;1.13;;
30593;SDS011;33199;47.590;8.300;2023-04-03T13:42:33;1.40;;;1.30;;
30593;SDS011;33199;47.590;8.300;2023-04-03T13:45:08;2.00;;;1.50;;
30593;SDS011;33199;47.590;8.300;2023-04-03T13:47:42;2.08;;;1.65;;
30593;SDS011;33199;47.590;8.300;2023-04-03T13:52:55;1.80;;;1.60;;
30593;SDS011;33199;47.590;8.300;2023-04-03T13:55:35;1.75;;;1.65;;
30593;SDS011;33199;47.590;8.300;2023-04-03T13:58:21;3.22;;;1.65;;
30593;SDS011;33199;47.590;8.300;2023-04-03T14:00:50;5.28;;;1.50;;
30593;SDS011;33199;47.590;8.300;2023-04-03T14:03:25;2.80;;;1.65;;
30593;SDS011;33199;47.590;8.300;2023-04-03T14:05:56;3.40;;;1.58;;
30593;SDS011;33199;47.590;8.300;2023-04-03T14:08:22;1.92;;;1.40;;
30593;SDS011;33199;47.590;8.300;2023-04-03T14:10:49;2.05;;;1.55;;
30593;SDS011;33199;47.590;8.300;2023-04-03T14:13:16;2.10;;;1.48;;
30593;SDS011;33199;47.590;8.300;2023-04-03T14:18:11;1.95;;;1.30;;
30593;SDS011;33199;47.590;8.300;2023-04-03T14:20:38;4.18;;;1.10;;
30593;SDS011;33199;47.590;8.300;2023-04-03T14:23:04;1.00;;;1.00;;
30593;SDS011;33199;47.590;8.300;2023-04-03T14:25:31;1.40;;;1.30;;
30593;SDS011;33199;47.590;8.300;2023-04-03T14:27:57;1.73;;;1.10;;
30593;SDS011;33199;47.590;8.300;2023-04-03T14:30:29;1.08;;;1.08;;
30593;SDS011;33199;47.590;8.300;2023-04-03T14:32:57;2.47;;;1.23;;
30593;SDS011;33199;47.590;8.300;2023-04-03T14:35:24;2.45;;;1.50;;
30593;SDS011;33199;47.590;8.300;2023-04-03T14:37:51;1.63;;;1.02;;
30593;SDS011;33199;47.590;8.300;2023-04-03T14:40:23;1.85;;;1.10;;
30593;SDS011;33199;47.590;8.300;2023-04-03T14:42:51;1.33;;;1.23;;
30593;SDS011;33199;47.590;8.300;2023-04-03T14:45:20;1.67;;;1.15;;
30593;SDS011;33199;47.590;8.300;2023-04-03T14:47:53;1.52;;;1.40;;
30593;SDS011;33199;47.590;8.300;2023-04-03T14:50:21;2.00;;;1.25;;
30593;SDS011;33199;47.590;8.300;2023-04-03T14:52:49;1.40;;;1.30;;
30593;SDS011;33199;47.590;8.300;2023-04-03T14:55:17;1.55;;;1.30;;
30593;SDS011;33199;47.590;8.300;2023-04-03T14:57:44;1.10;;;1.10;;
30593;SDS011;33199;47.590;8.300;2023-04-03T15:00:16;1.63;;;1.10;;
30593;SDS011;33199;47.590;8.300;2023-04-03T15:02:43;1.40;;;1.30;;
30593;SDS011;33199;47.590;8.300;2023-04-03T15:05:10;1.30;;;1.20;;
30593;SDS011;33199;47.590;8.300;2023-04-03T15:07:37;1.10;;;1.00;;
30593;SDS011;33199;47.590;8.300;2023-04-03T15:10:20;1.35;;;1.17;;
30593;SDS011;33199;47.590;8.300;2023-04-03T15:12:48;1.63;;;1.02;;
30593;SDS011;33199;47.590;8.300;2023-04-03T15:15:15;1.85;;;1.17;;
30593;SDS011;33199;47.590;8.300;2023-04-03T15:17:42;1.30;;;1.20;;
30593;SDS011;33199;47.590;8.300;2023-04-03T15:20:11;1.23;;;1.20;;
30593;SDS011;33199;47.590;8.300;2023-04-03T15:22:42;1.40;;;1.27;;
30593;SDS011;33199;47.590;8.300;2023-04-03T15:25:08;2.15;;;1.10;;
30593;SDS011;33199;47.590;8.300;2023-04-03T15:27:34;1.20;;;1.10;;
30593;SDS011;33199;47.590;8.300;2023-04-03T15:30:00;1.17;;;1.13;;
30593;SDS011;33199;47.590;8.300;2023-04-03T15:32:27;1.08;;;0.98;;
30593;SDS011;33199;47.590;8.300;2023-04-03T15:34:53;1.55;;;1.33;;
30593;SDS011;33199;47.590;8.300;2023-04-03T15:37:19;1.00;;;1.00;;
30593;SDS011;33199;47.590;8.300;2023-04-03T15:39:45;1.02;;;1.02;;
30593;SDS011;33199;47.590;8.300;2023-04-03T15:42:11;1.30;;;1.20;;
30593;SDS011;33199;47.590;8.300;2023-04-03T15:44:37;1.20;;;1.20;;
30593;SDS011;33199;47.590;8.300;2023-04-03T15:47:03;1.20;;;1.10;;
30593;SDS011;33199;47.590;8.300;2023-04-03T15:49:29;1.35;;;1.00;;
30593;SDS011;33199;47.590;8.300;2023-04-03T15:54:23;1.83;;;1.08;;
30593;SDS011;33199;47.590;8.300;2023-04-03T15:56:50;1.65;;;1.30;;
30593;SDS011;33199;47.590;8.300;2023-04-03T15:59:17;1.85;;;1.10;;
30593;SDS011;33199;47.590;8.300;2023-04-03T16:01:43;1.25;;;1.10;;
30593;SDS011;33199;47.590;8.300;2023-04-03T16:04:09;1.27;;;1.17;;
30593;SDS011;33199;47.590;8.300;2023-04-03T16:06:35;0.90;;;0.90;;
30593;SDS011;33199;47.590;8.300;2023-04-03T16:09:02;1.08;;;1.08;;
30593;SDS011;33199;47.590;8.300;2023-04-03T16:11:28;1.20;;;1.08;;
30593;SDS011;33199;47.590;8.300;2023-04-03T16:13:54;2.92;;;1.30;;
30593;SDS011;33199;47.590;8.300;2023-04-03T16:16:20;1.23;;;1.10;;
30593;SDS011;33199;47.590;8.300;2023-04-03T16:18:46;0.93;;;0.93;;
30593;SDS011;33199;47.590;8.300;2023-04-03T16:21:12;3.15;;;1.10;;
30593;SDS011;33199;47.590;8.300;2023-04-03T16:23:40;1.20;;;1.10;;
30593;SDS011;33199;47.590;8.300;2023-04-03T16:26:06;3.35;;;1.33;;
30593;SDS011;33199;47.590;8.300;2023-04-03T16:28:32;1.00;;;0.90;;
30593;SDS011;33199;47.590;8.300;2023-04-03T16:30:58;1.17;;;1.08;;
30593;SDS011;33199;47.590;8.300;2023-04-03T16:33:26;0.95;;;0.95;;
30593;SDS011;33199;47.590;8.300;2023-04-03T16:35:52;2.85;;;1.00;;
30593;SDS011;33199;47.590;8.300;2023-04-03T16:38:18;1.30;;;1.23;;
30593;SDS011;33199;47.590;8.300;2023-04-03T16:40:44;1.20;;;1.10;;
30593;SDS011;33199;47.590;8.300;2023-04-03T16:43:10;1.08;;;1.08;;
30593;SDS011;33199;47.590;8.300;2023-04-03T16:45:36;1.23;;;1.13;;
30593;SDS011;33199;47.590;8.300;2023-04-03T16:48:02;1.27;;;1.20;;
30593;SDS011;33199;47.590;8.300;2023-04-03T16:50:27;0.82;;;0.82;;
30593;SDS011;33199;47.590;8.300;2023-04-03T16:52:54;1.90;;;1.80;;
30593;SDS011;33199;47.590;8.300;2023-04-03T16:55:20;1.00;;;1.00;;
30593;SDS011;33199;47.590;8.300;2023-04-03T16:57:46;1.13;;;1.05;;
30593;SDS011;33199;47.590;8.300;2023-04-03T17:00:12;1.33;;;1.23;;
30593;SDS011;33199;47.590;8.300;2023-04-03T17:02:39;1.52;;;1.20;;
30593;SDS011;33199;47.590;8.300;2023-04-03T17:05:05;1.27;;;1.00;;
30593;SDS011;33199;47.590;8.300;2023-04-03T17:07:31;1.25;;;1.08;;